Time;durP1;ratioP1;P1;durP2;ratioP2;P2;SDS_P1;SDS_P2;PMS_P1;PMS_P2;Temp;Humidity;BMP_temperature;BMP_pressure;BME280_temperature;BME280_humidity;BME280_pressure;Samples;Min_cycle;Max_cycle;Signal;HPM_P1;HPM_P2
2022/06/21 04:15:03;;;;;;;5.87;4.47;;;;;;;18.13;81.88;99806.97;5553944;32;224267;-88
2022/06/21 04:18:25;;;;;;;5.87;4.68;;;;;;;18.02;79.69;99826.72;5543833;32;33510;-88
2022/06/21 04:21:37;;;;;;;4.53;4.03;;;;;;;18.07;78.75;99832.56;5543814;32;34416;-88
2022/06/21 04:25:12;;;;;;;4.55;3.72;;;;;;;18.13;77.10;99833.81;5543035;32;33856;-87
2022/06/21 04:28:21;;;;;;;4.80;3.80;;;;;;;18.21;74.91;99823.25;5543747;32;33979;-87
2022/06/21 04:31:38;;;;;;;3.75;3.45;;;;;;;18.32;74.12;99825.78;5543677;32;35360;-87
2022/06/21 04:34:51;;;;;;;3.97;2.80;;;;;;;18.37;73.48;99819.16;5544292;32;33932;-88
2022/06/21 04:38:12;;;;;;;4.53;2.92;;;;;;;18.26;70.41;99818.28;5553859;32;33870;-87
2022/06/21 04:41:25;;;;;;;5.22;2.90;;;;;;;18.42;69.74;99822.28;5544164;32;33508;-87
2022/06/21 04:44:49;;;;;;;2.45;2.30;;;;;;;18.47;68.62;99835.25;5544225;32;34974;-91
2022/06/21 04:48:04;;;;;;;5.35;2.90;;;;;;;18.37;68.03;99835.25;5543639;32;34792;-88
2022/06/21 04:51:13;;;;;;;2.80;2.58;;;;;;;18.39;67.55;99833.28;5543348;32;32425;-87
2022/06/21 04:54:28;;;;;;;8.85;2.70;;;;;;;18.63;66.65;99850.81;5543889;32;33681;-88
2022/06/21 04:57:32;;;;;;;3.55;2.33;;;;;;;20.47;60.18;99850.44;5543189;32;32577;-87
2022/06/21 05:00:35;;;;;;;3.10;2.17;;;;;;;20.50;58.07;99860.88;5542969;32;33732;-88
2022/06/21 05:03:42;;;;;;;2.45;2.20;;;;;;;20.29;59.90;99861.19;5543587;32;34034;-87
2022/06/21 05:06:46;;;;;;;2.75;2.25;;;;;;;19.87;60.21;99849.09;5539040;32;32728;-87
2022/06/21 05:09:51;;;;;;;2.47;2.20;;;;;;;19.77;60.64;99867.97;5532983;32;33857;-88
2022/06/21 05:12:57;;;;;;;2.40;2.20;;;;;;;19.69;60.75;99863.34;5524356;32;34242;-87
2022/06/21 05:16:04;;;;;;;4.03;2.20;;;;;;;19.71;60.25;99876.66;5524077;32;33930;-88
2022/06/21 05:19:14;;;;;;;1.98;1.80;;;;;;;19.97;59.75;99865.22;5524286;32;34219;-88
2022/06/21 05:22:30;;;;;;;1.65;1.55;;;;;;;21.09;56.00;99863.09;5534801;32;33828;-87
2022/06/21 05:25:39;;;;;;;2.92;2.35;;;;;;;23.11;49.00;99865.25;5527126;32;33778;-88
2022/06/21 05:28:53;;;;;;;2.92;1.60;;;;;;;26.16;41.24;99866.09;5511881;32;33967;-89
2022/06/21 05:32:01;;;;;;;1.90;1.50;;;;;;;29.14;34.46;99867.53;5512820;32;34050;-89
2022/06/21 05:35:15;;;;;;;1.67;1.40;;;;;;;28.31;34.85;99880.44;5510756;32;34237;-88
2022/06/21 05:38:22;;;;;;;3.12;1.50;;;;;;;27.62;35.62;99888.56;5522341;32;33912;-92
2022/06/21 05:41:32;;;;;;;2.55;1.30;;;;;;;27.09;36.14;99880.84;5523033;32;35238;-93
2022/06/21 05:44:52;;;;;;;3.17;1.60;;;;;;;26.59;36.68;99876.19;5528255;32;33584;-89
2022/06/21 05:47:59;;;;;;;3.00;1.58;;;;;;;27.41;35.52;99876.66;5531967;32;33563;-87
2022/06/21 05:51:04;;;;;;;1.65;1.30;;;;;;;26.84;36.93;99881.25;5521975;32;34141;-87
2022/06/21 05:54:14;;;;;;;4.40;1.70;;;;;;;27.77;35.38;99879.41;5524575;32;33398;-86
2022/06/21 05:57:20;;;;;;;2.12;1.30;;;;;;;27.24;35.99;99889.75;5531629;32;34246;-86
2022/06/21 06:00:32;;;;;;;1.50;1.40;;;;;;;27.49;34.70;99899.34;5532050;32;33859;-87
2022/06/21 06:03:50;;;;;;;1.67;1.27;;;;;;;27.45;35.28;99897.00;5528776;32;34324;-87
2022/06/21 06:06:59;;;;;;;2.08;1.30;;;;;;;28.76;32.28;99888.09;5525731;32;32439;-84
2022/06/21 06:10:04;;;;;;;2.35;1.40;;;;;;;29.46;31.06;99903.22;5529968;32;32831;-85
2022/06/21 06:13:25;;;;;;;1.77;1.20;;;;;;;28.06;32.10;99908.22;5530271;32;34445;-85
2022/06/21 06:16:35;;;;;;;3.03;1.37;;;;;;;27.29;33.16;99898.16;5530724;32;34008;-86
2022/06/21 06:19:52;;;;;;;2.75;1.37;;;;;;;27.25;33.00;99910.47;5531643;32;34037;-86
2022/06/21 06:23:01;;;;;;;1.83;1.60;;;;;;;27.65;32.34;99911.81;5533014;32;34152;-84
2022/06/21 06:26:13;;;;;;;3.30;1.30;;;;;;;26.37;34.43;99917.81;5530733;32;34859;-84
2022/06/21 06:29:32;;;;;;;3.00;1.30;;;;;;;27.39;33.43;99916.00;5532196;32;33767;-90
2022/06/21 06:32:57;;;;;;;2.45;1.50;;;;;;;28.09;31.28;99912.44;5530094;32;33926;-85
2022/06/21 06:36:06;;;;;;;2.00;1.10;;;;;;;25.96;33.81;99915.59;5523879;32;34281;-84
2022/06/21 06:39:29;;;;;;;3.62;1.45;;;;;;;28.43;30.57;99913.44;5525238;32;33417;-83
2022/06/21 06:42:37;;;;;;;3.00;1.17;;;;;;;27.30;30.55;99910.72;5531221;32;33531;-83
2022/06/21 06:45:42;;;;;;;2.58;1.60;;;;;;;26.96;31.59;99920.50;5535541;32;33840;-82
2022/06/21 06:48:45;;;;;;;5.68;1.58;;;;;;;25.80;32.94;99925.63;5530088;32;34088;-83
2022/06/21 06:52:16;;;;;;;1.55;1.25;;;;;;;25.76;32.79;99932.47;5533753;32;34004;-83
2022/06/21 06:55:28;;;;;;;1.60;1.27;;;;;;;26.02;30.94;99930.28;5533692;32;34076;-84
2022/06/21 06:58:59;;;;;;;3.22;1.42;;;;;;;26.28;30.93;99929.81;5524389;32;35312;-84
2022/06/21 07:02:24;;;;;;;4.32;1.30;;;;;;;25.40;32.41;99933.16;5523718;32;34008;-89
2022/06/21 07:05:37;;;;;;;2.10;1.37;;;;;;;24.39;33.91;99945.75;5522626;32;34616;-84
2022/06/21 07:09:08;;;;;;;3.03;1.48;;;;;;;24.10;34.88;99952.69;5522203;32;34025;-84
2022/06/21 07:12:18;;;;;;;1.80;1.30;;;;;;;24.07;34.86;99945.75;5529316;32;32219;-84
2022/06/21 07:16:00;;;;;;;4.53;1.70;;;;;;;24.85;32.88;99947.69;5532428;32;33551;-84
2022/06/21 07:19:04;;;;;;;1.23;1.10;;;;;;;24.13;30.89;99956.91;5529043;32;33835;-85
2022/06/21 07:22:16;;;;;;;3.35;1.50;;;;;;;24.43;29.15;99970.66;5533418;32;34359;-85
2022/06/21 07:25:26;;;;;;;1.80;1.20;;;;;;;23.61;30.58;99970.72;5527437;32;33942;-85
2022/06/21 07:28:49;;;;;;;2.00;1.20;;;;;;;24.02;31.16;99967.06;5530905;32;34251;-85
2022/06/21 07:32:02;;;;;;;3.58;1.27;;;;;;;24.17;30.29;99979.91;5528755;32;34146;-89
2022/06/21 07:35:15;;;;;;;2.30;1.25;;;;;;;24.03;30.10;99985.00;5534353;32;34175;-86
2022/06/21 07:38:36;;;;;;;5.00;1.65;;;;;;;24.20;30.58;99983.09;5536630;32;33662;-85
2022/06/21 07:41:50;;;;;;;3.47;1.45;;;;;;;23.72;31.71;99988.47;5535389;32;34121;-87
2022/06/21 07:45:02;;;;;;;3.78;1.23;;;;;;;23.76;31.40;99972.72;5534938;32;34618;-86
2022/06/21 07:48:13;;;;;;;4.65;1.73;;;;;;;23.80;31.78;99976.78;5531069;32;34322;-85
2022/06/21 07:51:25;;;;;;;9.60;1.50;;;;;;;23.63;32.55;99981.38;5526526;32;33619;-86
2022/06/21 07:54:34;;;;;;;3.85;1.98;;;;;;;24.16;31.59;99970.09;5532467;32;34431;-87
2022/06/21 07:57:43;;;;;;;6.95;1.77;;;;;;;24.71;31.69;99968.28;5532419;32;33615;-87
2022/06/21 08:08:07;;;;;;;2.53;1.10;;;;;;;25.09;28.49;99975.66;5531119;32;33569;-86
2022/06/21 08:11:35;;;;;;;2.87;1.25;;;;;;;25.20;28.05;99978.97;5530434;32;33963;-86
2022/06/21 08:14:38;;;;;;;4.32;1.45;;;;;;;25.68;27.98;99973.28;5536490;32;33508;-86
2022/06/21 08:17:54;;;;;;;4.28;1.37;;;;;;;25.59;27.51;99971.69;5538658;32;32930;-86
2022/06/21 08:21:08;;;;;;;2.33;1.50;;;;;;;26.90;27.01;99978.41;5535449;32;32750;-86
2022/06/21 08:24:28;;;;;;;4.90;1.52;;;;;;;25.93;28.00;99968.44;5531782;32;33764;-87
2022/06/21 08:27:43;;;;;;;1.67;1.48;;;;;;;26.53;26.37;99985.72;5530243;32;34992;-84
2022/06/21 08:30:54;;;;;;;3.85;1.45;;;;;;;27.40;25.60;99966.72;5533356;32;33972;-85
2022/06/21 08:34:05;;;;;;;5.57;1.40;;;;;;;27.71;24.92;99984.59;5533798;32;34214;-84
2022/06/21 08:37:13;;;;;;;1.98;1.15;;;;;;;26.58;25.73;99975.12;5513319;32;33964;-86
2022/06/21 08:40:59;;;;;;;1.98;1.30;;;;;;;26.59;25.12;99980.38;5520817;32;34213;-86
2022/06/21 08:44:04;;;;;;;1.23;1.20;;;;;;;26.18;26.56;99989.88;5440780;32;32780;-85
2022/06/21 08:47:47;;;;;;;6.00;1.20;;;;;;;26.97;24.53;99989.38;5455531;32;33939;-86
2022/06/21 08:51:41;;;;;;;1.67;1.25;;;;;;;27.38;23.78;99996.88;5531972;32;34232;-86
2022/06/21 08:55:01;;;;;;;3.72;1.30;;;;;;;26.99;24.53;99981.84;5506182;32;32927;-86
2022/06/21 08:58:27;;;;;;;1.98;1.30;;;;;;;26.73;25.41;99975.06;5531738;32;32460;-86
2022/06/21 09:01:47;;;;;;;2.40;1.58;;;;;;;27.11;24.93;99980.28;5527499;32;33227;-89
2022/06/21 09:05:02;;;;;;;5.80;1.37;;;;;;;26.74;25.10;99987.63;5535039;32;34749;-84
2022/06/21 09:08:54;;;;;;;4.05;1.37;;;;;;;26.15;25.98;99998.41;5532275;32;34728;-87
2022/06/21 09:12:47;;;;;;;8.48;1.58;;;;;;;26.47;25.22;99993.63;5533581;32;34287;-85
2022/06/21 09:16:00;;;;;;;4.30;1.55;;;;;;;27.87;23.92;99996.19;5518345;32;34840;-85
2022/06/21 09:19:29;;;;;;;2.92;1.60;;;;;;;29.17;22.75;99987.25;5533793;32;33005;-86
2022/06/21 09:22:39;;;;;;;7.65;1.45;;;;;;;28.84;23.74;99996.22;5508930;32;32646;-90
2022/06/21 09:26:28;;;;;;;2.35;1.58;;;;;;;28.53;23.25;99989.41;5532699;32;35146;-86
2022/06/21 09:29:51;;;;;;;7.03;1.48;;;;;;;28.24;24.34;99984.06;5517289;32;34239;-86
2022/06/21 09:32:59;;;;;;;;;;;;;;;28.47;23.88;99977.41;5529790;32;34168;-86
2022/06/21 09:36:32;;;;;;;6.70;1.75;;;;;;;29.14;23.15;99981.38;5530100;32;33006;-86
2022/06/21 09:40:15;;;;;;;8.98;1.50;;;;;;;29.03;23.62;99985.56;5529726;32;33644;-86
2022/06/21 09:44:21;;;;;;;4.53;1.35;;;;;;;29.61;23.00;99991.50;5530359;32;34888;-87
2022/06/21 09:48:20;;;;;;;8.98;1.87;;;;;;;29.31;23.33;99985.37;5489370;32;33895;-86
2022/06/21 09:51:29;;;;;;;4.28;1.52;;;;;;;29.32;22.96;99984.31;5494788;32;34739;-84
2022/06/21 09:54:39;;;;;;;6.68;1.50;;;;;;;30.57;21.31;99974.59;5493099;32;34467;-86
2022/06/21 09:57:59;;;;;;;5.47;1.23;;;;;;;29.43;22.43;99977.41;5487900;32;34958;-85
2022/06/21 10:01:30;;;;;;;6.70;1.70;;;;;;;28.73;22.89;99991.34;5480231;32;34813;-86
2022/06/21 10:05:20;;;;;;;6.28;1.40;;;;;;;29.28;22.25;99979.50;5488884;32;34176;-86
2022/06/21 10:08:40;;;;;;;1.23;1.13;;;;;;;28.55;23.33;99987.31;5468829;32;33866;-86
2022/06/21 10:12:22;;;;;;;7.30;1.67;;;;;;;28.79;23.09;99975.00;5475939;32;33589;-86
2022/06/21 10:15:54;;;;;;;5.57;1.60;;;;;;;28.22;23.40;99975.22;5469946;32;32710;-86
2022/06/21 10:19:23;;;;;;;3.97;1.50;;;;;;;28.24;23.30;99980.50;5489460;32;32635;-84
2022/06/21 10:22:35;;;;;;;3.15;1.48;;;;;;;29.67;22.21;99979.72;5481693;32;33967;-85
2022/06/21 10:25:41;;;;;;;4.75;1.73;;;;;;;30.44;20.11;99976.34;5500741;32;33995;-84
2022/06/21 10:29:19;;;;;;;5.00;1.30;;;;;;;31.89;19.08;99968.53;5509972;32;33858;-84
2022/06/21 10:32:36;;;;;;;11.88;1.83;;;;;;;31.98;19.14;99968.00;5514956;32;33995;-85
2022/06/21 10:35:45;;;;;;;17.60;1.83;;;;;;;31.85;19.04;99979.97;5506068;32;32503;-85
2022/06/21 10:39:09;;;;;;;6.75;1.52;;;;;;;29.31;22.25;99973.62;5509521;32;34741;-86
2022/06/21 10:42:48;;;;;;;4.37;1.45;;;;;;;30.37;21.84;99990.03;5515368;32;33280;-87
2022/06/21 10:46:03;;;;;;;1.23;1.00;;;;;;;29.48;22.30;99985.00;5511616;32;33874;-86
2022/06/21 10:49:35;;;;;;;4.90;1.10;;;;;;;27.15;22.65;99989.75;5501332;32;34379;-89
2022/06/21 10:52:59;;;;;;;3.35;1.35;;;;;;;28.24;22.40;99978.63;5496440;32;34064;-85
2022/06/21 11:04:12;;;;;;;3.05;1.48;;;;;;;28.40;24.26;99998.38;5507467;32;33377;-85
2022/06/21 11:15:55;;;;;;;1.87;0.90;;;;;;;28.55;23.23;99998.22;5495723;32;33471;-85
2022/06/21 11:19:34;;;;;;;5.20;1.25;;;;;;;28.81;23.58;100004.81;5491783;32;32826;-84
2022/06/21 11:22:57;;;;;;;3.95;1.35;;;;;;;28.30;23.62;100006.94;5511559;32;34286;-90
2022/06/21 11:26:23;;;;;;;2.53;1.58;;;;;;;28.28;23.03;100008.19;5510919;32;33979;-84
2022/06/21 11:30:10;;;;;;;5.18;1.45;;;;;;;28.33;23.81;100013.87;5493455;32;33714;-85
2022/06/21 11:33:51;;;;;;;3.85;1.20;;;;;;;27.45;24.38;100016.84;5503139;32;33739;-86
2022/06/21 11:37:21;;;;;;;2.62;1.05;;;;;;;28.06;23.61;100013.72;5498943;32;35315;-86
2022/06/21 11:40:43;;;;;;;;;;;;;;;27.84;23.99;100002.87;5476060;32;33570;-90
2022/06/21 11:44:03;;;;;;;4.55;1.20;;;;;;;27.15;23.40;100016.97;5489684;32;33193;-86
2022/06/21 11:47:11;;;;;;;7.07;1.37;;;;;;;27.50;23.74;100008.06;5503649;32;34645;-85
2022/06/21 11:50:27;;;;;;;4.95;1.27;;;;;;;27.88;23.02;100009.63;5504042;32;34981;-86
2022/06/21 11:54:00;;;;;;;2.20;0.88;;;;;;;27.35;24.10;100007.31;5509268;32;34032;-85
2022/06/21 11:57:32;;;;;;;3.15;1.62;;;;;;;26.75;24.93;100006.50;5510985;32;34273;-85
2022/06/21 12:00:53;;;;;;;10.77;1.40;;;;;;;26.68;24.66;100008.31;5507362;32;32586;-85
2022/06/21 12:04:26;;;;;;;4.55;1.42;;;;;;;26.77;24.83;100011.75;5508255;32;34253;-86
2022/06/21 12:08:05;;;;;;;7.35;1.30;;;;;;;27.21;24.88;100011.81;5504919;32;34692;-86
2022/06/21 12:11:22;;;;;;;1.58;1.10;;;;;;;27.08;25.12;100010.63;5509717;32;34264;-87
2022/06/21 12:15:06;;;;;;;1.77;0.90;;;;;;;27.14;25.60;100003.56;5523304;32;32520;-85
2022/06/21 12:18:16;;;;;;;2.97;1.27;;;;;;;26.27;26.81;100008.84;5526666;32;33621;-86
2022/06/21 12:21:26;;;;;;;13.93;1.60;;;;;;;26.23;27.23;100001.06;5516179;32;33161;-85
2022/06/21 12:24:32;;;;;;;3.83;1.33;;;;;;;26.38;27.40;99997.47;5528096;32;33877;-85
2022/06/21 12:27:37;;;;;;;4.65;2.03;;;;;;;26.08;28.05;99994.75;5535429;32;33151;-85
2022/06/21 12:30:42;;;;;;;3.50;1.60;;;;;;;26.68;28.00;99989.25;5540673;32;34252;-85
2022/06/21 12:34:10;;;;;;;;;;;;;;;26.08;28.08;99982.03;5539124;32;33713;-85
2022/06/21 12:37:48;;;;;;;5.55;1.58;;;;;;;25.70;28.01;99992.97;5538087;32;32701;-89
2022/06/21 12:41:05;;;;;;;2.83;1.58;;;;;;;25.28;29.11;99987.91;5520914;32;35102;-87
2022/06/21 12:44:19;;;;;;;2.30;1.60;;;;;;;25.71;28.94;99970.22;5530081;32;32958;-87
2022/06/21 12:47:39;;;;;;;8.13;1.55;;;;;;;26.21;27.17;99967.75;5530762;32;34064;-87
2022/06/21 12:50:51;;;;;;;4.10;1.87;;;;;;;26.37;27.36;99966.75;5530466;32;32290;-86
2022/06/21 12:54:20;;;;;;;2.92;1.92;;;;;;;26.22;27.62;99953.19;5531755;32;33298;-86
2022/06/21 12:57:36;;;;;;;3.28;1.20;;;;;;;26.37;26.69;99958.59;5519611;32;34084;-85
2022/06/21 13:00:52;;;;;;;2.92;1.23;;;;;;;26.04;27.87;99953.53;5530925;32;34113;-86
2022/06/21 13:04:00;;;;;;;3.90;1.55;;;;;;;25.80;27.74;99949.25;5534117;32;32723;-86
2022/06/21 13:07:44;;;;;;;1.60;1.50;;;;;;;25.20;28.02;99959.97;5541359;32;35160;-86
2022/06/21 13:11:23;;;;;;;2.30;1.52;;;;;;;25.44;27.79;99953.47;5533463;32;33848;-87
2022/06/21 13:15:01;;;;;;;3.97;1.52;;;;;;;25.90;28.37;99955.22;5530593;32;33760;-86
2022/06/21 13:18:15;;;;;;;1.60;1.37;;;;;;;25.26;27.83;99979.09;5530528;32;33817;-87
2022/06/21 13:21:48;;;;;;;4.95;1.75;;;;;;;25.35;27.60;99958.16;5532490;32;34021;-86
2022/06/21 13:25:14;;;;;;;5.37;1.10;;;;;;;25.40;26.08;99965.75;5529832;32;32365;-87
2022/06/21 13:28:49;;;;;;;2.53;1.30;;;;;;;25.19;26.90;99953.69;5530228;32;34580;-86
2022/06/21 13:31:59;;;;;;;1.95;1.25;;;;;;;24.80;26.74;99960.94;5528437;32;34097;-87
2022/06/21 13:35:24;;;;;;;2.10;1.30;;;;;;;24.56;27.37;99959.22;5528919;32;32989;-87
2022/06/21 13:38:54;;;;;;;1.92;1.08;;;;;;;24.92;27.23;99958.66;5519493;32;33670;-87
2022/06/21 13:46:21;;;;;;;2.72;1.30;;;;;;;25.19;26.46;99971.88;5530163;32;34656;-87
2022/06/21 13:49:32;;;;;;;1.65;1.50;;;;;;;25.17;25.87;99972.03;5529958;32;33772;-88
2022/06/21 13:53:07;;;;;;;7.87;1.40;;;;;;;25.23;25.93;99970.44;5529498;32;32648;-87
2022/06/21 13:56:33;;;;;;;2.90;1.27;;;;;;;25.41;25.98;99978.28;5530156;32;33951;-87
2022/06/21 13:59:45;;;;;;;6.93;1.20;;;;;;;25.51;25.67;99972.59;5529132;32;33856;-87
2022/06/21 14:03:16;;;;;;;3.80;1.10;;;;;;;25.53;25.47;99965.97;5530505;32;32728;-87
2022/06/21 14:06:35;;;;;;;2.97;1.00;;;;;;;25.15;25.62;99953.22;5531316;32;32672;-87
2022/06/21 14:10:16;;;;;;;9.05;1.10;;;;;;;25.38;26.05;99968.63;5531376;32;33921;-88
2022/06/21 14:13:27;;;;;;;4.15;1.27;;;;;;;25.29;26.35;99972.47;5530939;32;34138;-87
2022/06/21 14:16:45;;;;;;;2.92;1.30;;;;;;;25.20;25.00;99951.84;5531682;32;34202;-87
2022/06/21 14:20:04;;;;;;;3.55;1.40;;;;;;;25.56;24.49;99946.59;5535354;32;34770;-85
2022/06/21 14:23:27;;;;;;;1.58;1.27;;;;;;;25.28;24.50;99952.59;5535678;32;34721;-85
2022/06/21 14:26:41;;;;;;;2.70;1.27;;;;;;;25.06;25.00;99945.34;5533977;32;33961;-85
2022/06/21 14:30:14;;;;;;;2.87;1.50;;;;;;;25.07;25.00;99947.87;5532986;32;33615;-86
2022/06/21 14:33:49;;;;;;;1.62;1.52;;;;;;;25.05;26.07;99933.66;5533335;32;34203;-86
2022/06/21 14:37:00;;;;;;;3.78;1.52;;;;;;;24.86;25.62;99941.25;5530554;32;36248;-90
2022/06/21 14:40:27;;;;;;;4.97;1.55;;;;;;;24.87;25.93;99940.22;5534025;32;34076;-86
2022/06/21 14:43:45;;;;;;;2.45;1.45;;;;;;;24.83;25.67;99935.34;5533181;32;33829;-86
2022/06/21 14:47:00;;;;;;;1.87;1.40;;;;;;;24.74;26.14;99935.38;5533083;32;35334;-86
2022/06/21 14:50:20;;;;;;;3.83;1.35;;;;;;;24.80;26.05;99928.41;5533577;32;34355;-86
2022/06/21 14:53:49;;;;;;;5.53;1.40;;;;;;;24.89;25.93;99927.31;5541225;32;33892;-85
2022/06/21 14:56:57;;;;;;;3.92;1.42;;;;;;;24.72;26.17;99937.44;5544051;32;34990;-85
2022/06/21 15:00:19;;;;;;;1.45;1.20;;;;;;;24.85;26.43;99926.00;5545106;32;34844;-85
2022/06/21 15:03:51;;;;;;;2.00;1.08;;;;;;;24.99;26.75;99940.63;5543258;32;35360;-85
2022/06/21 15:07:27;;;;;;;1.05;0.90;;;;;;;25.01;26.57;99944.03;5540345;32;34117;-86
2022/06/21 15:10:38;;;;;;;1.40;1.20;;;;;;;24.73;26.65;99932.81;5542654;32;34432;-86
2022/06/21 15:14:02;;;;;;;1.87;1.17;;;;;;;24.90;26.90;99937.12;5534056;32;34227;-86
